Terminal Aerodrome Forecast
Issued by NWS Mt. Holly, NJ

Home | Current Version | Previous Version | Text Only | Print | Product List | Glossary On
Versions: 1 2 3 4 5 6 7 8 9 10 11 12 13 14 15 16 17 18 19 20 21 22 23 24 25 26 27 28 29 30 31
536
FTUS41 KPHI 302330
TAFPHL
TAF
KPHL 302330Z 0100/0206 16007KT P6SM OVC045
     FM010400 11005KT P6SM -RA OVC035
     FM010800 08008KT 5SM -RA SCT009 OVC025
     FM011300 12008KT 2SM RA BR OVC009
     FM011800 12006KT 1SM RA BR OVC004
     FM020000 08008KT 2SM -DZ BR OVC006=

USA.gov is the U.S. government's official web portal to all federal, state and local government web resources and services.